createdAt,value
2022-08-09T00:00:23.138Z,98.25
2022-08-09T00:02:51.653Z,98.32
2022-08-09T00:06:18.144Z,98.25
2022-08-09T00:08:31.446Z,98.14
2022-08-09T00:10:59.887Z,97.32
2022-08-09T00:13:28.220Z,94.19
2022-08-09T00:16:02.409Z,95.64
2022-08-09T00:18:34.911Z,97.73
2022-08-09T00:21:07.732Z,97.72
2022-08-09T00:23:56.447Z,98.84
2022-08-09T00:26:32.242Z,98.73
2022-08-09T00:29:01.745Z,99.06
2022-08-09T00:31:58.777Z,99.50
2022-08-09T00:34:19.284Z,100.00
2022-08-09T00:36:48.780Z,100.00
2022-08-09T00:40:13.770Z,100.00
2022-08-09T00:44:13.224Z,100.00
2022-08-09T00:44:52.104Z,100.00
2022-08-09T00:47:24.725Z,100.00
2022-08-09T00:49:56.489Z,100.00
2022-08-09T00:52:30.289Z,100.00
2022-08-09T00:55:02.312Z,100.00
2022-08-09T00:57:34.842Z,100.00
2022-08-09T01:00:21.029Z,100.00
2022-08-09T01:02:54.242Z,100.00
2022-08-09T01:05:46.414Z,100.00
2022-08-09T01:08:30.015Z,100.00
2022-08-09T01:11:09.088Z,100.00
2022-08-09T01:13:59.829Z,100.00
2022-08-09T01:16:35.381Z,100.00
2022-08-09T01:19:17.237Z,100.00
2022-08-09T01:22:04.448Z,100.00
2022-08-09T01:25:05.814Z,100.00
2022-08-09T01:27:36.263Z,100.00
2022-08-09T01:30:07.246Z,100.00
2022-08-09T01:32:46.377Z,100.00
2022-08-09T01:35:37.548Z,100.00
2022-08-09T01:38:16.525Z,100.00
2022-08-09T01:41:03.098Z,100.00
2022-08-09T01:43:42.018Z,100.00
2022-08-09T01:46:26.403Z,100.00
2022-08-09T01:49:12.682Z,100.00
2022-08-09T01:51:54.766Z,100.00
2022-08-09T01:54:26.786Z,100.00
2022-08-09T01:56:56.848Z,99.89
2022-08-09T01:59:24.448Z,99.75
2022-08-09T02:02:01.266Z,99.73
2022-08-09T02:04:31.861Z,100.00
2022-08-09T02:07:18.576Z,100.00
2022-08-09T02:10:19.826Z,99.50
2022-08-09T02:13:01.148Z,99.55
2022-08-09T02:15:48.832Z,99.91
2022-08-09T02:18:21.231Z,99.67
2022-08-09T02:20:56.092Z,99.43
2022-08-09T02:23:42.677Z,99.38
2022-08-09T02:26:26.952Z,99.14
2022-08-09T02:28:59.925Z,98.80
2022-08-09T02:31:40.916Z,98.40
2022-08-09T02:34:25.945Z,97.81
2022-08-09T02:37:08.028Z,97.71
2022-08-09T02:39:49.783Z,96.02
2022-08-09T02:42:37.044Z,97.12
2022-08-09T02:45:12.590Z,97.82
2022-08-09T02:47:57.463Z,97.69
2022-08-09T02:50:41.501Z,97.17
2022-08-09T02:53:26.344Z,97.00
2022-08-09T02:55:58.254Z,97.89
2022-08-09T02:58:36.916Z,98.04
2022-08-09T03:01:11.087Z,98.25
2022-08-09T03:04:16.861Z,98.66
2022-08-09T03:06:32.384Z,98.34
2022-08-09T03:09:01.837Z,97.92
2022-08-09T03:12:05.837Z,97.43
2022-08-09T03:14:21.829Z,98.23
2022-08-09T03:16:58.253Z,96.21
2022-08-09T03:19:58.650Z,96.07
2022-08-09T03:22:25.101Z,96.41
2022-08-09T03:25:13.621Z,95.22
2022-08-09T03:27:50.801Z,95.75
2022-08-09T03:30:30.159Z,94.85
2022-08-09T03:33:05.624Z,95.47
2022-08-09T03:36:13.892Z,96.15
2022-08-09T03:38:34.054Z,96.47
2022-08-09T03:41:01.158Z,96.58
2022-08-09T03:43:32.110Z,95.55
2022-08-09T03:46:03.912Z,96.71
2022-08-09T03:48:55.289Z,96.42
2022-08-09T03:51:55.541Z,95.47
2022-08-09T03:54:14.148Z,96.15
2022-08-09T03:56:42.350Z,95.73
2022-08-09T03:59:13.584Z,95.67
2022-08-09T04:01:45.700Z,95.83
2022-08-09T04:04:14.474Z,94.54
2022-08-09T04:06:48.858Z,94.52
2022-08-09T04:09:42.156Z,93.36
2022-08-09T04:12:30.852Z,94.53
2022-08-09T04:15:01.598Z,93.42
2022-08-09T04:17:31.432Z,92.86
2022-08-09T04:20:02.648Z,92.96
2022-08-09T04:22:30.487Z,93.04
2022-08-09T04:24:59.648Z,93.19
2022-08-09T04:27:29.035Z,92.29
2022-08-09T04:29:56.687Z,91.76
2022-08-09T04:32:37.090Z,92.04
2022-08-09T04:35:05.488Z,92.54
2022-08-09T04:37:45.976Z,92.15
2022-08-09T04:40:28.840Z,91.52
2022-08-09T04:43:02.007Z,91.36
2022-08-09T04:45:31.119Z,90.85
2022-08-09T04:48:09.509Z,91.54
2022-08-09T04:50:37.785Z,91.70
2022-08-09T04:53:13.222Z,92.52
2022-08-09T04:55:57.840Z,92.26
2022-08-09T04:58:31.839Z,92.66
2022-08-09T05:01:01.498Z,94.32
2022-08-09T05:03:39.975Z,94.90
2022-08-09T05:06:09.918Z,93.78
2022-08-09T05:08:38.782Z,93.14
2022-08-09T05:11:11.231Z,93.43
2022-08-09T05:13:39.157Z,92.53
2022-08-09T05:16:08.173Z,92.16
2022-08-09T05:18:57.798Z,92.84
2022-08-09T05:21:30.152Z,93.70
2022-08-09T05:24:01.701Z,92.12
2022-08-09T05:26:36.936Z,91.95
2022-08-09T05:29:22.222Z,91.47
2022-08-09T05:31:57.566Z,92.05
2022-08-09T05:34:31.857Z,90.92
2022-08-09T05:37:05.171Z,91.58
2022-08-09T05:39:42.397Z,92.32
2022-08-09T05:42:20.607Z,93.21
2022-08-09T05:44:56.059Z,90.02
2022-08-09T05:47:25.418Z,90.54
2022-08-09T05:50:25.455Z,90.61
2022-08-09T05:52:44.251Z,88.60
2022-08-09T05:55:18.259Z,88.63
2022-08-09T05:57:50.977Z,89.18
2022-08-09T06:00:29.536Z,90.60
2022-08-09T06:03:01.817Z,90.23
2022-08-09T06:05:57.016Z,90.10
2022-08-09T06:08:24.354Z,90.87
2022-08-09T06:10:58.248Z,90.79
2022-08-09T06:13:28.596Z,89.80
2022-08-09T06:16:01.696Z,89.13
2022-08-09T06:18:32.541Z,89.22
2022-08-09T06:21:01.565Z,87.62
2022-08-09T06:23:58.143Z,87.28
2022-08-09T06:26:21.309Z,86.95
2022-08-09T06:29:00.872Z,87.81
2022-08-09T06:31:40.430Z,88.38
2022-08-09T06:34:23.108Z,88.65
2022-08-09T06:36:59.597Z,88.29
2022-08-09T06:39:48.091Z,89.63
2022-08-09T06:42:16.006Z,87.85
2022-08-09T06:44:43.482Z,88.17
2022-08-09T06:47:10.712Z,87.63
2022-08-09T06:50:11.917Z,87.20
2022-08-09T06:52:26.723Z,86.92
2022-08-09T06:54:54.232Z,87.23
2022-08-09T06:57:25.897Z,87.28
2022-08-09T07:00:51.082Z,86.23
2022-08-09T07:02:58.103Z,86.36
2022-08-09T07:05:25.440Z,86.95
2022-08-09T07:08:12.469Z,87.63
2022-08-09T07:10:39.773Z,86.74
2022-08-09T07:13:27.308Z,85.94
2022-08-09T07:16:42.915Z,86.28
2022-08-09T07:18:41.167Z,87.64
2022-08-09T07:21:10.424Z,85.38
2022-08-09T07:23:56.582Z,85.11
2022-08-09T07:26:26.049Z,84.09
2022-08-09T07:29:09.162Z,84.70
2022-08-09T07:31:45.359Z,84.87
2022-08-09T07:34:20.446Z,83.10
2022-08-09T07:36:49.863Z,83.97
2022-08-09T07:39:20.306Z,84.36
2022-08-09T07:42:06.475Z,85.55
2022-08-09T07:44:51.798Z,86.34
2022-08-09T07:47:21.598Z,86.24
2022-08-09T07:50:05.159Z,85.52
2022-08-09T07:52:36.647Z,85.89
2022-08-09T07:55:09.520Z,86.24
2022-08-09T07:57:47.069Z,86.17
2022-08-09T08:00:35.858Z,85.90
2022-08-09T08:03:04.480Z,84.87
2022-08-09T08:05:54.421Z,84.49
2022-08-09T08:09:01.314Z,84.94
2022-08-09T08:12:10.721Z,84.43
2022-08-09T08:13:56.854Z,85.24
2022-08-09T08:16:29.651Z,88.20
2022-08-09T08:18:58.665Z,87.14
2022-08-09T08:21:26.560Z,88.41
2022-08-09T08:23:56.201Z,88.41
2022-08-09T08:26:26.402Z,89.39
2022-08-09T08:29:09.465Z,88.68
2022-08-09T08:32:02.579Z,90.97
2022-08-09T08:34:25.421Z,89.14
2022-08-09T08:36:52.841Z,89.39
2022-08-09T08:39:21.988Z,89.77
2022-08-09T08:41:52.405Z,89.19
2022-08-09T08:44:26.742Z,88.55
2022-08-09T08:46:59.735Z,88.55
2022-08-09T08:49:46.371Z,87.82
2022-08-09T08:55:07.282Z,85.45
2022-08-09T08:57:35.332Z,84.73
2022-08-09T09:00:13.060Z,83.13
2022-08-09T09:02:52.866Z,83.76
2022-08-09T09:05:58.396Z,82.61
2022-08-09T09:08:30.368Z,82.82
2022-08-09T09:11:04.112Z,81.62
2022-08-09T09:13:55.304Z,78.63
2022-08-09T09:16:30.445Z,79.80
2022-08-09T09:19:40.220Z,78.62
2022-08-09T09:22:04.145Z,78.07
2022-08-09T09:24:39.616Z,78.52
2022-08-09T09:27:09.114Z,78.21
2022-08-09T09:32:37.092Z,78.35
2022-08-09T09:35:09.554Z,77.62
2022-08-09T09:37:40.992Z,78.77
2022-08-09T09:40:11.838Z,79.07
2022-08-09T09:42:39.661Z,76.95
2022-08-09T09:45:10.635Z,75.84
2022-08-09T09:47:56.210Z,76.41
2022-08-09T09:50:51.364Z,75.60
2022-08-09T09:53:21.714Z,74.87
2022-08-09T09:56:08.906Z,73.34
2022-08-09T09:58:49.220Z,73.17
2022-08-09T10:01:31.508Z,72.89
2022-08-09T10:04:15.883Z,73.48
2022-08-09T10:06:47.216Z,73.92
2022-08-09T10:09:23.373Z,73.66
2022-08-09T10:12:14.585Z,73.08
2022-08-09T10:14:51.743Z,73.23
2022-08-09T10:17:51.071Z,72.75
2022-08-09T10:20:27.110Z,74.27
2022-08-09T10:23:20.055Z,73.25
2022-08-09T10:26:07.679Z,73.31
2022-08-09T10:28:37.438Z,73.70
2022-08-09T10:34:10.847Z,73.28
2022-08-09T10:36:42.872Z,72.50
2022-08-09T10:39:11.407Z,72.63
2022-08-09T10:41:43.725Z,72.67
2022-08-09T10:44:10.995Z,74.46
2022-08-09T10:47:07.514Z,74.25
2022-08-09T10:49:58.623Z,72.63
2022-08-09T10:52:42.955Z,72.56
2022-08-09T10:55:25.718Z,69.77
2022-08-09T10:57:55.641Z,68.97
2022-08-09T11:00:29.827Z,68.39
2022-08-09T11:03:16.507Z,69.22
2022-08-09T11:06:18.570Z,69.66
2022-08-09T11:08:51.109Z,68.14
2022-08-09T11:11:20.529Z,67.77
2022-08-09T11:14:38.222Z,69.46
2022-08-09T11:17:14.664Z,71.27
2022-08-09T11:20:11.349Z,70.66
2022-08-09T11:22:40.833Z,70.06
2022-08-09T11:25:25.934Z,68.69
2022-08-09T11:28:09.287Z,69.59
2022-08-09T11:30:48.143Z,68.91
2022-08-09T11:33:18.541Z,68.43
2022-08-09T11:35:57.714Z,68.50
2022-08-09T11:38:32.619Z,68.47
2022-08-09T11:41:13.827Z,67.82
2022-08-09T11:43:49.219Z,68.06
2022-08-09T11:46:26.467Z,67.61
2022-08-09T11:49:05.423Z,68.07
2022-08-09T11:52:59.107Z,67.99
2022-08-09T11:55:35.100Z,67.47
2022-08-09T11:58:16.919Z,67.79
2022-08-09T12:00:53.440Z,67.23
2022-08-09T12:03:56.147Z,67.81
2022-08-09T12:06:32.094Z,67.04
2022-08-09T12:09:01.215Z,66.52
2022-08-09T12:11:29.289Z,67.22
2022-08-09T12:14:09.507Z,67.77
2022-08-09T12:16:40.810Z,68.22
2022-08-09T12:19:11.369Z,68.31
2022-08-09T12:21:50.235Z,68.31
2022-08-09T12:24:24.043Z,68.36
2022-08-09T12:29:13.274Z,68.71
2022-08-09T12:30:04.319Z,68.89
2022-08-09T12:32:41.873Z,69.72
2022-08-09T12:35:12.591Z,70.55
2022-08-09T12:37:50.768Z,69.91
2022-08-09T12:40:23.262Z,70.11
2022-08-09T12:42:52.716Z,70.03
2022-08-09T12:45:33.707Z,69.47
2022-08-09T12:48:03.685Z,68.24
2022-08-09T12:50:31.806Z,68.42
2022-08-09T12:53:18.212Z,68.73
2022-08-09T12:56:13.651Z,68.39
2022-08-09T12:58:34.075Z,68.78
2022-08-09T13:01:26.689Z,68.54
2022-08-09T13:03:59.211Z,68.74
2022-08-09T13:06:34.500Z,67.65
2022-08-09T13:09:07.023Z,68.01
2022-08-09T13:11:39.568Z,67.19
2022-08-09T13:14:42.383Z,65.99
2022-08-09T13:17:08.684Z,65.48
2022-08-09T13:20:10.635Z,65.52
2022-08-09T13:22:35.596Z,65.02
2022-08-09T13:25:14.153Z,64.18
2022-08-09T13:27:54.686Z,65.05
2022-08-09T13:30:51.032Z,64.19
2022-08-09T13:33:22.438Z,63.70
2022-08-09T13:36:39.757Z,62.98
2022-08-09T13:38:55.464Z,64.01
2022-08-09T13:41:51.937Z,64.00
2022-08-09T13:44:13.774Z,63.90
2022-08-09T13:47:29.012Z,64.18
2022-08-09T13:49:39.689Z,64.30
2022-08-09T13:52:19.501Z,62.95
2022-08-09T13:55:00.553Z,64.20
2022-08-09T13:57:40.500Z,62.78
2022-08-09T14:00:19.613Z,62.79
2022-08-09T14:03:03.042Z,62.74
2022-08-09T14:05:59.911Z,62.98
2022-08-09T14:08:26.818Z,62.33
2022-08-09T14:10:54.660Z,63.49
2022-08-09T14:14:14.918Z,62.73
2022-08-09T14:16:15.124Z,61.13
2022-08-09T14:18:49.971Z,62.04
2022-08-09T14:21:22.714Z,61.19
2022-08-09T14:23:56.889Z,60.83
2022-08-09T14:26:32.004Z,61.05
2022-08-09T14:29:03.448Z,58.87
2022-08-09T14:31:36.002Z,59.21
2022-08-09T14:34:31.017Z,59.03
2022-08-09T14:37:02.630Z,59.67
2022-08-09T14:39:46.396Z,59.94
2022-08-09T14:42:31.082Z,59.80
2022-08-09T14:46:56.090Z,59.30
2022-08-09T14:47:57.000Z,58.98
2022-08-09T14:50:31.115Z,58.88
2022-08-09T14:53:06.324Z,58.13
2022-08-09T14:55:41.937Z,58.70
2022-08-09T14:58:10.178Z,57.91
2022-08-09T15:00:42.236Z,57.07
2022-08-09T15:03:10.829Z,57.00
2022-08-09T15:05:38.750Z,57.53
2022-08-09T15:08:10.273Z,58.32
2022-08-09T15:10:39.050Z,58.39
2022-08-09T15:13:08.918Z,57.95
2022-08-09T15:15:39.304Z,59.50
2022-08-09T15:18:14.310Z,62.40
2022-08-09T15:21:54.922Z,61.15
2022-08-09T15:24:02.710Z,57.95
2022-08-09T15:26:19.255Z,57.78
2022-08-09T15:29:04.105Z,57.99
2022-08-09T15:31:41.901Z,57.90
2022-08-09T15:34:33.579Z,58.02
2022-08-09T15:36:58.560Z,58.54
2022-08-09T15:39:53.365Z,59.49
2022-08-09T15:42:22.509Z,58.96
2022-08-09T15:44:50.808Z,59.64
2022-08-09T15:47:22.550Z,60.47
2022-08-09T15:50:04.737Z,58.87
2022-08-09T15:52:34.483Z,58.74
2022-08-09T15:55:04.792Z,59.03
2022-08-09T15:57:35.322Z,60.03
2022-08-09T16:00:24.548Z,60.64
2022-08-09T16:02:56.417Z,58.70
2022-08-09T16:05:47.193Z,55.39
2022-08-09T16:08:29.738Z,56.18
2022-08-09T16:11:03.029Z,61.86
2022-08-09T16:14:03.664Z,64.10
2022-08-09T16:16:26.055Z,64.82
2022-08-09T16:18:55.777Z,65.21
2022-08-09T16:21:25.571Z,65.95
2022-08-09T16:24:01.654Z,66.49
2022-08-09T16:26:35.683Z,66.02
2022-08-09T16:29:11.434Z,65.82
2022-08-09T16:32:17.643Z,65.71
2022-08-09T16:34:54.982Z,66.07
2022-08-09T16:37:53.812Z,66.69
2022-08-09T16:40:10.258Z,71.28
2022-08-09T16:42:45.270Z,72.67
2022-08-09T16:45:16.692Z,73.70
2022-08-09T16:48:37.915Z,74.04
2022-08-09T16:50:34.284Z,73.53
2022-08-09T16:53:02.935Z,72.81
2022-08-09T16:55:58.795Z,73.02
2022-08-09T16:58:21.168Z,73.88
2022-08-09T17:00:49.118Z,74.21
2022-08-09T17:03:22.071Z,74.40
2022-08-09T17:06:06.568Z,75.08
2022-08-09T17:08:44.907Z,76.10
2022-08-09T17:11:24.416Z,77.82
2022-08-09T17:14:01.780Z,78.66
2022-08-09T17:16:29.661Z,79.37
2022-08-09T17:18:58.294Z,79.62
2022-08-09T17:21:25.736Z,79.59
2022-08-09T17:24:27.136Z,78.84
2022-08-09T17:26:47.819Z,78.78
2022-08-09T17:29:21.019Z,78.37
2022-08-09T17:31:49.430Z,78.94
2022-08-09T17:35:00.771Z,78.45
2022-08-09T17:37:04.755Z,77.98
2022-08-09T17:39:52.972Z,77.81
2022-08-09T17:42:41.104Z,77.75
2022-08-09T17:45:15.878Z,77.47
2022-08-09T17:48:02.904Z,78.67
2022-08-09T17:50:37.070Z,77.89
2022-08-09T17:53:19.797Z,77.92
2022-08-09T17:55:55.279Z,79.00
2022-08-09T17:58:27.131Z,79.39
2022-08-09T18:00:56.750Z,79.78
2022-08-09T18:03:30.455Z,79.22
2022-08-09T18:06:00.905Z,78.58
2022-08-09T18:08:29.018Z,78.70
2022-08-09T18:11:01.801Z,79.00
2022-08-09T18:13:39.712Z,79.29
2022-08-09T18:16:30.451Z,79.90
2022-08-09T18:19:03.811Z,79.69
2022-08-09T18:21:47.060Z,80.21
2022-08-09T18:24:17.647Z,80.50
2022-08-09T18:26:46.246Z,79.67
2022-08-09T18:30:37.724Z,80.42
2022-08-09T18:32:04.921Z,79.88
2022-08-09T18:34:35.592Z,79.68
2022-08-09T18:37:03.756Z,79.66
2022-08-09T18:39:32.472Z,79.47
2022-08-09T18:42:08.939Z,79.49
2022-08-09T18:44:38.814Z,79.37
2022-08-09T18:47:15.756Z,79.88
2022-08-09T18:49:46.870Z,80.12
2022-08-09T18:52:18.839Z,80.39
2022-08-09T18:54:53.428Z,80.84
2022-08-09T18:57:22.900Z,81.47
2022-08-09T18:59:56.349Z,82.59
2022-08-09T19:02:30.787Z,81.23
2022-08-09T19:05:19.693Z,80.60
2022-08-09T19:07:59.086Z,80.14
2022-08-09T19:10:37.638Z,79.89
2022-08-09T19:13:19.861Z,79.87
2022-08-09T19:15:50.132Z,81.44
2022-08-09T19:18:34.087Z,81.01
2022-08-09T19:21:09.241Z,80.86
2022-08-09T19:24:38.011Z,81.13
2022-08-09T19:26:31.944Z,81.10
2022-08-09T19:29:03.218Z,80.62
2022-08-09T19:31:45.657Z,80.76
2022-08-09T19:34:21.330Z,80.43
2022-08-09T19:36:50.913Z,80.24
2022-08-09T19:39:20.352Z,80.52
2022-08-09T19:41:48.897Z,80.72
2022-08-09T19:44:21.288Z,80.60
2022-08-09T19:46:53.288Z,80.91
2022-08-09T19:50:48.464Z,81.52
2022-08-09T19:52:12.412Z,80.72
2022-08-09T19:54:41.076Z,80.58
2022-08-09T19:57:08.370Z,80.83
2022-08-09T19:59:58.481Z,81.36
2022-08-09T20:04:09.705Z,81.61
2022-08-09T20:05:15.043Z,81.49
2022-08-09T20:07:59.398Z,81.41
2022-08-09T20:10:34.959Z,81.44
2022-08-09T20:13:06.584Z,81.56
2022-08-09T20:16:35.161Z,81.07
2022-08-09T20:18:28.054Z,81.34
2022-08-09T20:20:56.201Z,81.89
2022-08-09T20:23:24.381Z,81.53
2022-08-09T20:26:06.964Z,82.03
2022-08-09T20:28:47.729Z,81.86
2022-08-09T20:31:16.268Z,82.11
2022-08-09T20:33:44.744Z,82.11
2022-08-09T20:36:13.322Z,82.22
2022-08-09T20:41:35.559Z,82.75
2022-08-09T20:44:10.474Z,83.19
2022-08-09T20:46:44.542Z,83.56
2022-08-09T20:49:16.142Z,83.80
2022-08-09T20:51:50.813Z,83.99
2022-08-09T20:54:18.409Z,83.89
2022-08-09T20:56:49.770Z,84.26
2022-08-09T20:59:25.051Z,83.79
2022-08-09T21:02:11.243Z,83.87
2022-08-09T21:05:54.936Z,83.85
2022-08-09T21:07:40.411Z,84.16
2022-08-09T21:10:11.605Z,84.22
2022-08-09T21:12:39.179Z,84.67
2022-08-09T21:15:12.384Z,84.99
2022-08-09T21:18:21.268Z,84.71
2022-08-09T21:20:30.244Z,84.61
2022-08-09T21:22:59.472Z,84.15
2022-08-09T21:25:59.378Z,84.58
2022-08-09T21:28:33.749Z,84.55
2022-08-09T21:31:17.533Z,84.64
2022-08-09T21:33:50.308Z,84.84
2022-08-09T21:36:28.079Z,84.52
2022-08-09T21:39:00.022Z,84.67
2022-08-09T21:42:05.569Z,84.71
2022-08-09T21:44:33.037Z,84.70
2022-08-09T21:47:07.680Z,84.97
2022-08-09T21:49:42.678Z,85.55
2022-08-09T21:52:15.044Z,85.54
2022-08-09T21:54:56.928Z,85.75
2022-08-09T21:57:39.190Z,85.90
2022-08-09T22:00:25.507Z,85.64
2022-08-09T22:02:59.168Z,86.10
2022-08-09T22:05:37.308Z,86.25
2022-08-09T22:08:13.000Z,86.40
2022-08-09T22:11:49.055Z,86.32
2022-08-09T22:13:34.841Z,86.34
2022-08-09T22:16:08.386Z,86.61
2022-08-09T22:18:52.220Z,86.69
2022-08-09T22:21:45.419Z,87.11
2022-08-09T22:24:16.898Z,87.02
2022-08-09T22:26:51.813Z,87.28
2022-08-09T22:29:24.009Z,87.66
2022-08-09T22:31:57.536Z,87.91
2022-08-09T22:34:28.700Z,88.20
2022-08-09T22:36:56.449Z,87.83
2022-08-09T22:39:55.902Z,87.88
2022-08-09T22:42:21.244Z,88.16
2022-08-09T22:48:04.505Z,88.17
2022-08-09T22:48:11.602Z,87.82
2022-08-09T22:50:31.213Z,88.07
2022-08-09T22:53:03.695Z,88.16
2022-08-09T22:56:06.448Z,87.92
2022-08-09T22:58:20.166Z,87.89
2022-08-09T23:00:58.531Z,87.60
2022-08-09T23:04:02.750Z,87.97
2022-08-09T23:06:14.317Z,88.09
2022-08-09T23:08:44.924Z,88.00
2022-08-09T23:11:16.789Z,88.58
2022-08-09T23:13:51.615Z,88.76
2022-08-09T23:16:22.140Z,88.43
2022-08-09T23:18:49.590Z,88.61
2022-08-09T23:21:25.073Z,88.72
2022-08-09T23:24:01.500Z,89.17
2022-08-09T23:26:36.002Z,89.38
2022-08-09T23:29:08.219Z,89.44
2022-08-09T23:31:35.306Z,89.50
2022-08-09T23:34:03.726Z,89.23
2022-08-09T23:36:32.337Z,89.19
2022-08-09T23:38:59.613Z,89.31
2022-08-09T23:41:28.818Z,89.19
2022-08-09T23:44:01.817Z,89.75
2022-08-09T23:46:30.731Z,90.02
2022-08-09T23:48:59.088Z,90.20
2022-08-09T23:51:27.285Z,90.27
2022-08-09T23:54:03.234Z,90.08
2022-08-09T23:56:53.013Z,90.00
2022-08-09T23:59:20.699Z,90.24
